createdAt,value
2019-03-10T00:02:07.558Z,100832.59
2019-03-10T00:04:38.815Z,100838.67
2019-03-10T00:07:10.086Z,100835.37
2019-03-10T00:09:41.358Z,100831.12
2019-03-10T00:12:12.618Z,100820.13
2019-03-10T00:14:43.925Z,100810.84
2019-03-10T00:17:15.249Z,100795.56
2019-03-10T00:19:46.459Z,100784.28
2019-03-10T00:22:17.802Z,100783.94
2019-03-10T00:24:49.048Z,100789.23
2019-03-10T00:27:20.345Z,100778.12
2019-03-10T00:29:51.640Z,100773.56
2019-03-10T00:32:41.756Z,100777.06
2019-03-10T00:38:15.154Z,100772.09
2019-03-10T00:42:09.264Z,100772.69
2019-03-10T00:45:32.889Z,100776.37
2019-03-10T00:49:14.618Z,100780.70
2019-03-10T00:52:36.962Z,100771.08
2019-03-10T00:55:08.218Z,100768.29
2019-03-10T00:57:39.584Z,100766.66
2019-03-10T01:00:17.502Z,100762.92
2019-03-10T01:02:48.669Z,100763.55
2019-03-10T01:05:20.484Z,100754.92
2019-03-10T01:07:55.069Z,100755.66
2019-03-10T01:10:26.385Z,100747.17
2019-03-10T01:12:57.769Z,100742.48
2019-03-10T01:15:29.466Z,100740.03
2019-03-10T01:18:02.182Z,100732.53
2019-03-10T01:20:34.004Z,100719.28
2019-03-10T01:23:05.371Z,100705.09
2019-03-10T01:25:36.629Z,100694.56
2019-03-10T01:28:10.258Z,100694.56
2019-03-10T01:31:11.010Z,100700.00
2019-03-10T01:34:51.081Z,100707.30
2019-03-10T01:37:22.334Z,100696.45
2019-03-10T01:39:53.594Z,100689.68
2019-03-10T01:42:24.806Z,100682.46
2019-03-10T01:44:56.058Z,100676.55
2019-03-10T01:47:27.356Z,100660.14
2019-03-10T01:49:58.497Z,100661.06
2019-03-10T01:52:29.781Z,100660.20
2019-03-10T01:55:01.068Z,100646.61
2019-03-10T01:57:32.345Z,100638.89
2019-03-10T02:00:22.602Z,100637.02
2019-03-10T02:03:12.745Z,100629.46
2019-03-10T02:05:43.978Z,100630.16
2019-03-10T02:08:15.234Z,100629.67
2019-03-10T02:10:46.400Z,100622.72
2019-03-10T02:13:17.592Z,100618.42
2019-03-10T02:15:48.849Z,100606.75
2019-03-10T02:18:20.044Z,100600.34
2019-03-10T02:20:51.265Z,100593.11
2019-03-10T02:23:22.470Z,100590.37
2019-03-10T02:25:53.765Z,100583.65
2019-03-10T02:28:24.952Z,100571.21
2019-03-10T02:30:56.188Z,100561.03
2019-03-10T02:33:27.401Z,100556.88
2019-03-10T02:35:58.618Z,100546.73
2019-03-10T02:38:29.922Z,100537.80
2019-03-10T02:41:01.149Z,100523.08
2019-03-10T02:43:32.380Z,100516.27
2019-03-10T02:46:03.536Z,100515.52
2019-03-10T02:48:34.787Z,100505.63
2019-03-10T02:51:06.003Z,100498.28
2019-03-10T02:53:37.311Z,100500.19
2019-03-10T02:56:08.444Z,100485.76
2019-03-10T02:58:39.683Z,100477.42
2019-03-10T03:01:10.944Z,100478.59
2019-03-10T03:03:42.128Z,100484.00
2019-03-10T03:06:13.447Z,100475.34
2019-03-10T03:08:44.611Z,100468.20
2019-03-10T03:11:15.817Z,100468.63
2019-03-10T03:13:47.073Z,100466.27
2019-03-10T03:16:18.315Z,100454.06
2019-03-10T03:18:49.524Z,100454.11
2019-03-10T03:21:20.889Z,100440.48
2019-03-10T03:23:52.127Z,100431.16
2019-03-10T03:26:23.443Z,100423.70
2019-03-10T03:28:54.656Z,100409.59
2019-03-10T03:31:26.087Z,100408.20
2019-03-10T03:33:57.275Z,100398.31
2019-03-10T03:36:32.533Z,100395.28
2019-03-10T03:39:22.077Z,100392.38
2019-03-10T03:41:53.355Z,100378.68
2019-03-10T03:44:24.494Z,100371.43
2019-03-10T03:46:55.761Z,100363.64
2019-03-10T03:49:26.989Z,100365.89
2019-03-10T03:51:58.369Z,100360.88
2019-03-10T03:54:29.510Z,100353.39
2019-03-10T03:57:00.688Z,100343.14
2019-03-10T03:59:31.953Z,100343.36
2019-03-10T04:02:16.421Z,100334.98
2019-03-10T04:04:47.659Z,100326.96
2019-03-10T04:07:18.946Z,100319.36
2019-03-10T04:09:50.170Z,100310.90
2019-03-10T04:12:21.384Z,100311.84
2019-03-10T04:14:52.577Z,100300.17
2019-03-10T04:17:23.818Z,100290.30
2019-03-10T04:19:55.062Z,100271.23
2019-03-10T04:22:26.398Z,100259.00
2019-03-10T04:24:57.545Z,100258.38
2019-03-10T04:27:28.821Z,100252.84
2019-03-10T04:30:00.042Z,100241.70
2019-03-10T04:32:31.360Z,100239.48
2019-03-10T04:35:02.573Z,100233.69
2019-03-10T04:37:33.714Z,100222.30
2019-03-10T04:40:05.236Z,100223.00
2019-03-10T04:42:36.511Z,100220.04
2019-03-10T04:45:08.160Z,100221.83
2019-03-10T04:47:39.423Z,100220.46
2019-03-10T04:50:10.839Z,100213.52
2019-03-10T04:52:42.199Z,100214.61
2019-03-10T04:55:44.147Z,100200.63
2019-03-10T04:58:16.156Z,100191.80
2019-03-10T05:00:50.926Z,100190.05
2019-03-10T05:03:22.224Z,100172.48
2019-03-10T05:05:53.484Z,100174.84
2019-03-10T05:08:24.624Z,100166.02
2019-03-10T05:10:55.956Z,100156.73
2019-03-10T05:13:27.123Z,100141.98
2019-03-10T05:15:58.389Z,100136.22
2019-03-10T05:18:29.616Z,100134.95
2019-03-10T05:21:00.761Z,100120.48
2019-03-10T05:23:38.588Z,100110.86
2019-03-10T05:26:09.885Z,100103.86
2019-03-10T05:28:47.117Z,100104.28
2019-03-10T05:31:18.404Z,100096.17
2019-03-10T05:33:49.611Z,100083.67
2019-03-10T05:36:20.730Z,100075.06
2019-03-10T05:38:51.979Z,100070.66
2019-03-10T05:41:23.149Z,100059.54
2019-03-10T05:43:54.399Z,100060.38
2019-03-10T05:46:25.709Z,100054.06
2019-03-10T05:48:56.966Z,100038.61
2019-03-10T05:51:28.162Z,100031.89
2019-03-10T05:53:59.419Z,100024.22
2019-03-10T05:56:30.559Z,100007.64
2019-03-10T05:59:01.679Z,100004.64
2019-03-10T06:01:32.907Z,100003.91
2019-03-10T06:04:04.180Z,100004.91
2019-03-10T06:06:35.415Z,99987.77
2019-03-10T06:09:08.277Z,99972.77
2019-03-10T06:11:39.531Z,99960.23
2019-03-10T06:14:10.779Z,99951.66
2019-03-10T06:16:42.087Z,99950.50
2019-03-10T06:19:13.308Z,99939.41
2019-03-10T06:21:44.549Z,99927.13
2019-03-10T06:24:15.678Z,99926.92
2019-03-10T06:26:46.854Z,99919.95
2019-03-10T06:29:17.976Z,99913.91
2019-03-10T06:31:49.139Z,99918.16
2019-03-10T06:34:20.366Z,99920.73
2019-03-10T06:36:51.534Z,99917.87
2019-03-10T06:39:22.754Z,99914.31
2019-03-10T06:41:53.873Z,99904.23
2019-03-10T06:44:25.039Z,99902.25
2019-03-10T06:46:56.317Z,99896.61
2019-03-10T06:49:28.626Z,99892.95
2019-03-10T06:51:59.776Z,99884.84
2019-03-10T06:54:31.084Z,99882.95
2019-03-10T06:57:02.232Z,99871.41
2019-03-10T06:59:36.317Z,99860.57
2019-03-10T07:02:07.436Z,99850.65
2019-03-10T07:04:38.723Z,99837.73
2019-03-10T07:07:09.869Z,99831.14
2019-03-10T07:09:41.129Z,99808.82
2019-03-10T07:12:12.359Z,99795.60
2019-03-10T07:14:43.612Z,99814.89
2019-03-10T07:17:14.768Z,99808.25
2019-03-10T07:19:45.918Z,99805.83
2019-03-10T07:22:17.214Z,99791.12
2019-03-10T07:24:51.358Z,99783.20
2019-03-10T07:27:24.351Z,99765.63
2019-03-10T07:30:14.279Z,99754.42
2019-03-10T07:33:00.699Z,99755.31
2019-03-10T07:35:49.351Z,99765.25
2019-03-10T07:38:43.442Z,99739.73
2019-03-10T07:41:45.609Z,99732.13
2019-03-10T07:44:25.711Z,99717.94
2019-03-10T07:47:14.119Z,99724.53
2019-03-10T07:49:54.927Z,99711.84
2019-03-10T07:52:44.885Z,99701.92
2019-03-10T07:55:44.098Z,99702.42
2019-03-10T07:58:40.227Z,99690.38
2019-03-10T08:01:29.116Z,99672.83
2019-03-10T08:04:28.316Z,99663.23
2019-03-10T08:07:16.927Z,99668.69
2019-03-10T08:10:22.067Z,99670.83
2019-03-10T08:13:08.544Z,99668.55
2019-03-10T08:15:57.127Z,99657.97
2019-03-10T08:18:37.213Z,99663.59
2019-03-10T08:21:18.412Z,99653.85
2019-03-10T08:24:05.067Z,99651.03
2019-03-10T08:26:58.044Z,99645.27
2019-03-10T08:29:50.757Z,99629.38
2019-03-10T08:32:58.951Z,99632.52
2019-03-10T08:36:00.877Z,99647.06
2019-03-10T08:38:52.655Z,99644.09
2019-03-10T08:41:57.555Z,99619.78
2019-03-10T08:44:36.005Z,99611.00
2019-03-10T08:47:41.294Z,99619.37
2019-03-10T08:50:30.535Z,99603.00
2019-03-10T08:53:19.222Z,99592.58
2019-03-10T08:56:27.406Z,99598.77
2019-03-10T08:59:15.608Z,99582.86
2019-03-10T09:02:08.236Z,99575.55
2019-03-10T09:05:06.845Z,99562.27
2019-03-10T09:08:07.841Z,99554.53
2019-03-10T09:10:53.533Z,99555.36
2019-03-10T09:13:43.522Z,99545.48
2019-03-10T09:16:33.365Z,99539.80
2019-03-10T09:19:12.761Z,99536.73
2019-03-10T09:22:03.238Z,99531.72
2019-03-10T09:25:02.310Z,99533.50
2019-03-10T09:27:55.137Z,99529.78
2019-03-10T09:30:43.744Z,99523.43
2019-03-10T09:33:28.765Z,99505.92
2019-03-10T09:36:12.104Z,99505.60
2019-03-10T09:39:08.154Z,99500.28
2019-03-10T09:42:07.354Z,99480.28
2019-03-10T09:45:03.383Z,99475.43
2019-03-10T09:47:53.377Z,99482.58
2019-03-10T09:50:41.858Z,99480.13
2019-03-10T09:53:24.229Z,99461.91
2019-03-10T09:56:20.588Z,99464.22
2019-03-10T09:59:03.828Z,99442.01
2019-03-10T10:01:55.020Z,99444.34
2019-03-10T10:04:56.492Z,99438.89
2019-03-10T10:07:54.063Z,99442.01
2019-03-10T10:10:48.542Z,99439.03
2019-03-10T10:13:50.608Z,99430.18
2019-03-10T10:16:40.542Z,99426.27
2019-03-10T10:19:29.145Z,99421.19
2019-03-10T10:22:28.304Z,99412.50
2019-03-10T10:25:33.491Z,99410.11
2019-03-10T10:28:13.873Z,99406.73
2019-03-10T10:30:56.329Z,99408.95
2019-03-10T10:33:46.307Z,99402.14
2019-03-10T10:36:34.791Z,99391.67
2019-03-10T10:39:26.109Z,99388.00
2019-03-10T10:42:14.739Z,99379.33
2019-03-10T10:45:00.525Z,99384.34
2019-03-10T10:47:51.962Z,99371.96
2019-03-10T10:51:18.691Z,99368.05
2019-03-10T10:54:12.851Z,99363.47
2019-03-10T10:57:20.784Z,99348.80
2019-03-10T11:00:06.933Z,99347.73
2019-03-10T11:02:51.769Z,99334.30
2019-03-10T11:05:54.187Z,99333.75
2019-03-10T11:08:44.202Z,99325.96
2019-03-10T11:11:41.911Z,99319.20
2019-03-10T11:14:30.567Z,99314.73
2019-03-10T11:17:23.575Z,99303.19
2019-03-10T11:20:15.366Z,99300.63
2019-03-10T11:23:08.232Z,99294.35
2019-03-10T11:26:00.589Z,99288.66
2019-03-10T11:29:05.488Z,99285.73
2019-03-10T11:31:55.503Z,99288.22
2019-03-10T11:34:46.375Z,99298.09
2019-03-10T11:37:39.538Z,99267.06
2019-03-10T11:40:33.319Z,99261.98
2019-03-10T11:43:13.315Z,99268.50
2019-03-10T11:46:14.417Z,99266.28
2019-03-10T11:48:59.863Z,99254.89
2019-03-10T11:51:50.061Z,99254.45
2019-03-10T11:54:52.100Z,99275.70
2019-03-10T11:57:45.172Z,99287.41
2019-03-10T12:00:28.552Z,99278.14
2019-03-10T12:03:17.315Z,99291.13
2019-03-10T12:06:08.480Z,99296.99
2019-03-10T12:08:52.195Z,99289.92
2019-03-10T12:11:24.893Z,99290.77
2019-03-10T12:13:56.150Z,99287.41
2019-03-10T12:16:27.512Z,99295.20
2019-03-10T12:18:58.851Z,99286.17
2019-03-10T12:21:30.229Z,99295.59
2019-03-10T12:24:01.599Z,99284.95
2019-03-10T12:26:33.067Z,99273.27
2019-03-10T12:29:04.460Z,99299.08
2019-03-10T12:31:35.966Z,99287.37
2019-03-10T12:34:07.149Z,99288.52
2019-03-10T12:36:40.057Z,99282.91
2019-03-10T12:39:11.786Z,99269.06
2019-03-10T12:41:43.449Z,99275.97
2019-03-10T12:44:14.868Z,99266.16
2019-03-10T12:46:46.161Z,99279.30
2019-03-10T12:49:17.737Z,99269.27
2019-03-10T12:52:04.140Z,99276.81
2019-03-10T12:54:35.441Z,99272.13
2019-03-10T12:57:06.776Z,99274.91
2019-03-10T12:59:38.089Z,99266.25
2019-03-10T13:02:09.569Z,99270.70
2019-03-10T13:04:41.280Z,99280.00
2019-03-10T13:07:13.699Z,99286.16
2019-03-10T13:09:45.012Z,99287.26
2019-03-10T13:12:16.348Z,99280.43
2019-03-10T13:14:58.751Z,99285.93
2019-03-10T13:17:20.685Z,99278.49
2019-03-10T13:19:55.586Z,99280.25
2019-03-10T13:22:28.649Z,99298.00
2019-03-10T13:25:00.738Z,99296.66
2019-03-10T13:27:32.166Z,99285.53
2019-03-10T13:30:07.497Z,99291.34
2019-03-10T13:32:38.897Z,99312.17
2019-03-10T13:35:10.400Z,99317.64
2019-03-10T13:37:41.790Z,99301.97
2019-03-10T13:40:13.461Z,99321.22
2019-03-10T13:42:45.213Z,99346.48
2019-03-10T13:45:16.526Z,99333.72
2019-03-10T13:47:47.847Z,99360.48
2019-03-10T13:50:19.263Z,99370.11
2019-03-10T13:53:09.628Z,99370.89
2019-03-10T13:56:03.223Z,99389.83
2019-03-10T13:58:34.527Z,99399.44
2019-03-10T14:01:06.018Z,99411.91
2019-03-10T14:03:37.314Z,99416.42
2019-03-10T14:06:08.620Z,99411.34
2019-03-10T14:08:39.955Z,99381.09
2019-03-10T14:11:11.294Z,99414.01
2019-03-10T14:13:42.735Z,99457.87
2019-03-10T14:16:14.098Z,99429.73
2019-03-10T14:18:45.409Z,99459.20
2019-03-10T14:21:16.653Z,99467.99
2019-03-10T14:23:47.967Z,99475.31
2019-03-10T14:26:19.374Z,99471.02
2019-03-10T14:28:50.771Z,99500.83
2019-03-10T14:31:22.047Z,99498.16
2019-03-10T14:33:53.282Z,99490.25
2019-03-10T14:36:24.624Z,99495.88
2019-03-10T14:38:55.917Z,99497.94
2019-03-10T14:41:27.172Z,99493.02
2019-03-10T14:43:58.411Z,99495.85
2019-03-10T14:46:29.608Z,99517.73
2019-03-10T14:49:00.918Z,99519.09
2019-03-10T14:51:32.121Z,99527.23
2019-03-10T14:54:03.333Z,99561.23
2019-03-10T14:56:34.553Z,99556.52
2019-03-10T14:59:06.044Z,99559.03
2019-03-10T15:01:37.323Z,99566.44
2019-03-10T15:04:08.783Z,99574.50
2019-03-10T15:06:39.939Z,99592.42
2019-03-10T15:09:13.029Z,99591.28
2019-03-10T15:11:44.260Z,99610.25
2019-03-10T15:14:15.509Z,99603.91
2019-03-10T15:16:46.717Z,99630.11
2019-03-10T15:19:18.044Z,99634.27
2019-03-10T15:21:49.249Z,99649.72
2019-03-10T15:24:20.509Z,99655.83
2019-03-10T15:26:51.841Z,99640.18
2019-03-10T15:29:23.007Z,99650.03
2019-03-10T15:31:54.222Z,99679.36
2019-03-10T15:34:25.560Z,99707.06
2019-03-10T15:36:56.883Z,99715.17
2019-03-10T15:39:28.207Z,99708.05
2019-03-10T15:41:59.600Z,99731.33
2019-03-10T15:44:30.771Z,99756.52
2019-03-10T15:47:02.092Z,99743.45
2019-03-10T15:49:33.541Z,99750.61
2019-03-10T15:52:07.302Z,99767.53
2019-03-10T15:54:37.762Z,99745.88
2019-03-10T15:57:09.189Z,99808.50
2019-03-10T15:59:40.564Z,99827.22
2019-03-10T16:02:14.506Z,99830.27
2019-03-10T16:04:45.836Z,99891.39
2019-03-10T16:07:17.176Z,99903.61
2019-03-10T16:09:48.511Z,99964.90
2019-03-10T16:12:20.002Z,99951.10
2019-03-10T16:14:51.461Z,99970.97
2019-03-10T16:17:22.732Z,100019.31
2019-03-10T16:19:54.246Z,100053.69
2019-03-10T16:22:25.508Z,100052.98
2019-03-10T16:24:57.057Z,100067.11
2019-03-10T16:27:28.327Z,100098.59
2019-03-10T16:30:01.664Z,100113.19
2019-03-10T16:32:32.973Z,100141.76
2019-03-10T16:35:04.549Z,100153.52
2019-03-10T16:37:35.858Z,100152.46
2019-03-10T16:40:09.290Z,100178.00
2019-03-10T16:42:40.549Z,100185.08
2019-03-10T16:45:18.205Z,100187.33
2019-03-10T16:47:49.609Z,100203.28
2019-03-10T16:50:21.118Z,100223.89
2019-03-10T16:53:11.630Z,100229.44
2019-03-10T16:55:43.015Z,100216.56
2019-03-10T16:58:14.349Z,100241.18
2019-03-10T17:00:45.714Z,100267.53
2019-03-10T17:03:17.071Z,100280.81
2019-03-10T17:05:48.368Z,100289.17
2019-03-10T17:08:22.633Z,100296.34
2019-03-10T17:10:54.187Z,100303.42
2019-03-10T17:13:25.811Z,100318.52
2019-03-10T17:15:57.128Z,100320.28
2019-03-10T17:18:31.076Z,100330.27
2019-03-10T17:21:04.955Z,100345.89
2019-03-10T17:23:39.653Z,100346.30
2019-03-10T17:26:10.889Z,100342.00
2019-03-10T17:28:44.924Z,100352.20
2019-03-10T17:31:16.341Z,100367.70
2019-03-10T17:33:47.674Z,100374.03
2019-03-10T17:36:19.059Z,100380.50
2019-03-10T17:38:50.321Z,100385.34
2019-03-10T17:41:23.333Z,100383.42
2019-03-10T17:44:02.599Z,100394.92
2019-03-10T17:46:36.960Z,100400.67
2019-03-10T17:49:08.272Z,100413.19
2019-03-10T17:51:40.189Z,100413.66
2019-03-10T17:54:11.503Z,100415.61
2019-03-10T17:56:42.790Z,100417.85
2019-03-10T17:59:14.157Z,100420.16
2019-03-10T18:01:45.516Z,100431.52
2019-03-10T18:04:16.878Z,100438.54
2019-03-10T18:06:48.726Z,100441.47
2019-03-10T18:09:23.166Z,100444.02
2019-03-10T18:11:54.364Z,100458.91
2019-03-10T18:14:28.794Z,100452.28
2019-03-10T18:17:00.099Z,100463.00
2019-03-10T18:19:31.421Z,100472.41
2019-03-10T18:22:02.714Z,100474.55
2019-03-10T18:24:35.798Z,100479.44
2019-03-10T18:27:07.064Z,100479.94
2019-03-10T18:29:39.246Z,100484.08
2019-03-10T18:32:11.014Z,100489.48
2019-03-10T18:34:42.729Z,100483.22
2019-03-10T18:37:14.452Z,100478.08
2019-03-10T18:39:48.504Z,100483.94
2019-03-10T18:42:22.763Z,100485.17
2019-03-10T18:44:54.746Z,100501.34
2019-03-10T18:47:27.322Z,100519.47
2019-03-10T18:50:08.720Z,100517.67
2019-03-10T18:52:40.020Z,100532.39
2019-03-10T18:55:15.385Z,100543.58
2019-03-10T18:57:48.413Z,100538.33
2019-03-10T19:00:23.006Z,100543.39
2019-03-10T19:02:59.990Z,100533.13
2019-03-10T19:05:38.554Z,100570.16
2019-03-10T19:08:10.003Z,100577.74
2019-03-10T19:10:41.296Z,100590.39
2019-03-10T19:13:12.648Z,100588.23
2019-03-10T19:15:43.962Z,100594.94
2019-03-10T19:18:15.367Z,100594.48
2019-03-10T19:20:46.772Z,100612.76
2019-03-10T19:23:18.286Z,100630.16
2019-03-10T19:25:49.607Z,100637.94
2019-03-10T19:28:20.970Z,100637.97
2019-03-10T19:30:53.092Z,100650.75
2019-03-10T19:33:24.433Z,100667.52
2019-03-10T19:35:56.074Z,100663.91
2019-03-10T19:38:28.916Z,100674.83
2019-03-10T19:41:00.472Z,100671.60
2019-03-10T19:43:31.716Z,100671.86
2019-03-10T19:46:04.588Z,100678.07
2019-03-10T19:48:36.109Z,100687.42
2019-03-10T19:51:09.263Z,100684.77
2019-03-10T19:53:40.714Z,100695.18
2019-03-10T19:56:12.197Z,100700.22
2019-03-10T19:58:43.614Z,100701.03
2019-03-10T20:01:18.111Z,100703.91
2019-03-10T20:03:49.495Z,100698.64
2019-03-10T20:06:23.604Z,100699.47
2019-03-10T20:08:57.190Z,100701.48
2019-03-10T20:11:29.113Z,100685.27
2019-03-10T20:14:03.120Z,100692.19
2019-03-10T20:16:37.507Z,100697.30
2019-03-10T20:19:12.127Z,100722.44
2019-03-10T20:21:47.070Z,100740.61
2019-03-10T20:24:19.042Z,100740.62
2019-03-10T20:26:52.990Z,100741.02
2019-03-10T20:29:24.319Z,100734.93
2019-03-10T20:31:58.309Z,100715.36
2019-03-10T20:34:29.612Z,100687.97
2019-03-10T20:37:00.906Z,100700.56
2019-03-10T20:39:36.121Z,100716.13
2019-03-10T20:42:06.981Z,100717.66
2019-03-10T20:44:38.322Z,100714.42
2019-03-10T20:47:09.677Z,100715.02
2019-03-10T20:49:40.895Z,100718.73
2019-03-10T20:52:12.262Z,100718.73
2019-03-10T20:54:43.818Z,100723.85
2019-03-10T20:57:15.491Z,100729.34
2019-03-10T20:59:46.861Z,100722.14
2019-03-10T21:02:18.201Z,100727.78
2019-03-10T21:04:49.818Z,100730.85
2019-03-10T21:07:24.181Z,100733.92
2019-03-10T21:09:55.636Z,100745.01
2019-03-10T21:12:27.061Z,100745.72
2019-03-10T21:14:58.950Z,100750.59
2019-03-10T21:17:32.404Z,100751.44
2019-03-10T21:20:06.807Z,100750.34
2019-03-10T21:22:38.415Z,100753.36
2019-03-10T21:25:19.094Z,100759.64
2019-03-10T21:27:50.572Z,100755.23
2019-03-10T21:30:26.022Z,100759.88
2019-03-10T21:32:58.148Z,100760.78
2019-03-10T21:35:29.343Z,100766.81
2019-03-10T21:38:03.388Z,100767.41
2019-03-10T21:40:36.202Z,100775.00
2019-03-10T21:43:07.449Z,100784.20
2019-03-10T21:45:42.255Z,100784.44
2019-03-10T21:48:13.540Z,100791.52
2019-03-10T21:50:49.753Z,100784.20
2019-03-10T21:54:05.419Z,100779.20
2019-03-10T21:56:37.512Z,100784.86
2019-03-10T21:59:08.805Z,100782.98
2019-03-10T22:01:40.102Z,100786.62
2019-03-10T22:04:11.813Z,100787.02
2019-03-10T22:06:43.016Z,100795.05
2019-03-10T22:09:15.784Z,100805.95
2019-03-10T22:11:54.470Z,100816.80
2019-03-10T22:14:43.438Z,100837.27
2019-03-10T22:17:23.526Z,100824.18
2019-03-10T22:19:58.085Z,100832.56
2019-03-10T22:22:40.003Z,100816.89
2019-03-10T22:25:15.913Z,100804.34
2019-03-10T22:27:49.649Z,100809.84
2019-03-10T22:30:25.772Z,100808.51
2019-03-10T22:32:57.050Z,100805.39
2019-03-10T22:35:48.451Z,100808.84
2019-03-10T22:38:20.900Z,100802.40
2019-03-10T22:40:54.175Z,100801.84
2019-03-10T22:43:43.384Z,100794.73
2019-03-10T22:46:16.356Z,100799.95
2019-03-10T22:48:49.941Z,100800.66
2019-03-10T22:51:33.421Z,100791.70
2019-03-10T22:54:17.539Z,100786.05
2019-03-10T22:56:50.017Z,100789.44
2019-03-10T22:59:21.249Z,100784.57
2019-03-10T23:01:52.557Z,100778.64
2019-03-10T23:04:26.725Z,100781.36
2019-03-10T23:06:58.004Z,100773.36
2019-03-10T23:09:29.197Z,100780.66
2019-03-10T23:12:00.387Z,100766.42
2019-03-10T23:14:31.645Z,100755.66
2019-03-10T23:17:02.989Z,100748.02
2019-03-10T23:19:36.999Z,100747.56
2019-03-10T23:22:08.252Z,100750.20
2019-03-10T23:24:39.528Z,100746.23
2019-03-10T23:27:10.787Z,100749.48
2019-03-10T23:29:42.027Z,100742.08
2019-03-10T23:32:13.291Z,100741.71
2019-03-10T23:34:44.618Z,100740.05
2019-03-10T23:37:19.296Z,100741.36
2019-03-10T23:39:50.523Z,100741.43
2019-03-10T23:42:21.748Z,100739.27
2019-03-10T23:44:53.008Z,100736.25
2019-03-10T23:47:24.165Z,100737.29
2019-03-10T23:49:55.433Z,100710.93
2019-03-10T23:52:26.671Z,100705.73
2019-03-10T23:54:57.915Z,100721.66
2019-03-10T23:57:29.012Z,100714.95
